Time;durP1;ratioP1;P1;durP2;ratioP2;P2;SDS_P1;SDS_P2;PMS_P1;PMS_P2;Temp;Humidity;BMP_temperature;BMP_pressure;BME280_temperature;BME280_humidity;BME280_pressure;Samples;Min_cycle;Max_cycle;Signal;HPM_P1;HPM_P2
2022/03/24 00:00:23;;;;;;;23.57;15.80;;;9.40;57.10;;;;;;5093464;28;20546;-56
2022/03/24 00:02:50;;;;;;;19.43;15.13;;;9.50;57.20;;;;;;5093467;28;20526;-57
2022/03/24 00:05:18;;;;;;;26.20;16.60;;;9.40;57.20;;;;;;5093566;28;20443;-57
2022/03/24 00:07:45;;;;;;;22.23;15.43;;;9.40;57.70;;;;;;5093248;28;20473;-57
2022/03/24 00:10:15;;;;;;;20.07;16.20;;;9.40;57.20;;;;;;5093250;28;20470;-57
2022/03/24 00:12:43;;;;;;;24.27;15.43;;;9.40;57.60;;;;;;5093443;28;20459;-57
2022/03/24 00:15:12;;;;;;;24.07;17.77;;;9.30;57.50;;;;;;5093056;28;20458;-56
2022/03/24 00:17:39;;;;;;;19.43;16.40;;;9.20;58.10;;;;;;5093010;28;20512;-56
2022/03/24 00:20:07;;;;;;;21.00;15.30;;;9.20;58.30;;;;;;5096506;28;20448;-57
2022/03/24 00:22:34;;;;;;;24.50;16.00;;;9.10;57.90;;;;;;5097085;28;20949;-57
2022/03/24 00:25:01;;;;;;;22.33;15.00;;;8.90;57.80;;;;;;5097396;28;20454;-56
2022/03/24 00:27:29;;;;;;;19.10;15.50;;;8.90;57.90;;;;;;5097371;28;20463;-57
2022/03/24 00:29:56;;;;;;;16.20;14.07;;;9.00;58.90;;;;;;5097254;28;20911;-57
2022/03/24 00:32:24;;;;;;;23.30;16.17;;;9.00;59.10;;;;;;5096871;28;20530;-56
2022/03/24 00:34:52;;;;;;;18.83;15.60;;;9.10;59.40;;;;;;5096848;28;20948;-56
2022/03/24 00:37:19;;;;;;;27.60;15.27;;;9.00;59.20;;;;;;5096893;28;20467;-56
2022/03/24 00:39:48;;;;;;;27.17;16.20;;;9.10;59.10;;;;;;5096720;28;20748;-56
2022/03/24 00:42:15;;;;;;;20.90;15.43;;;8.90;58.80;;;;;;5096884;28;20776;-56
2022/03/24 00:44:44;;;;;;;23.53;16.13;;;8.80;59.10;;;;;;5097164;28;20431;-57
2022/03/24 00:47:13;;;;;;;19.23;17.10;;;8.90;59.80;;;;;;5096890;28;20478;-57
2022/03/24 00:49:43;;;;;;;22.17;15.10;;;8.90;59.90;;;;;;5096493;28;20475;-57
2022/03/24 00:52:11;;;;;;;21.03;15.33;;;8.70;59.70;;;;;;5096464;28;21003;-56
2022/03/24 00:54:38;;;;;;;23.43;14.10;;;8.60;62.20;;;;;;5096509;28;20447;-56
2022/03/24 00:57:06;;;;;;;22.97;15.70;;;8.70;66.40;;;;;;5096712;28;20550;-56
2022/03/24 00:59:33;;;;;;;22.03;16.20;;;8.60;61.20;;;;;;5096469;28;20449;-56
2022/03/24 01:02:00;;;;;;;22.07;16.43;;;8.60;62.00;;;;;;5096663;28;20517;-56
2022/03/24 01:04:28;;;;;;;19.63;14.77;;;8.60;61.80;;;;;;5096326;28;20443;-57
2022/03/24 01:06:56;;;;;;;24.60;17.30;;;8.70;62.10;;;;;;5096357;28;20965;-56
2022/03/24 01:09:23;;;;;;;19.20;15.53;;;8.60;62.40;;;;;;5096212;28;21009;-57
2022/03/24 01:11:51;;;;;;;18.90;15.43;;;8.60;62.70;;;;;;5096183;28;20497;-57
2022/03/24 01:14:18;;;;;;;22.07;17.13;;;8.60;62.20;;;;;;5096653;28;20456;-56
2022/03/24 01:16:45;;;;;;;19.60;13.73;;;8.50;62.70;;;;;;5096493;28;20471;-56
2022/03/24 01:19:14;;;;;;;21.83;16.17;;;8.50;63.40;;;;;;5096448;28;20933;-56
2022/03/24 01:21:42;;;;;;;27.80;16.63;;;8.50;63.20;;;;;;5096350;28;20447;-56
2022/03/24 01:24:25;;;;;;;19.57;15.53;;;8.40;63.80;;;;;;5096388;28;20448;-56
2022/03/24 01:26:55;;;;;;;22.40;15.83;;;8.40;64.00;;;;;;5095960;28;20555;-56
2022/03/24 01:29:23;;;;;;;19.90;16.47;;;8.40;63.60;;;;;;5096092;28;20480;-56
2022/03/24 01:31:51;;;;;;;25.20;16.27;;;8.40;64.50;;;;;;5095390;28;20451;-56
2022/03/24 01:34:19;;;;;;;20.23;15.30;;;8.40;64.70;;;;;;5096171;28;20451;-56
2022/03/24 01:36:46;;;;;;;21.33;17.10;;;8.30;63.80;;;;;;5095948;28;20448;-56
2022/03/24 01:39:15;;;;;;;18.53;15.43;;;8.10;64.30;;;;;;5095683;28;20447;-56
2022/03/24 01:41:42;;;;;;;21.90;14.57;;;8.10;65.00;;;;;;5095849;28;20501;-56
2022/03/24 01:44:13;;;;;;;21.80;15.73;;;8.20;65.80;;;;;;5095974;28;20451;-56
2022/03/24 01:46:56;;;;;;;24.60;16.77;;;8.30;65.80;;;;;;5095742;28;20462;-56
2022/03/24 01:49:24;;;;;;;24.03;15.73;;;8.20;65.60;;;;;;5095423;28;21033;-56
2022/03/24 01:51:51;;;;;;;21.53;17.10;;;8.00;65.60;;;;;;5095269;28;20530;-57
2022/03/24 01:54:21;;;;;;;20.27;15.70;;;7.90;66.40;;;;;;5095885;28;20432;-56
2022/03/24 01:56:49;;;;;;;23.00;14.80;;;7.90;67.30;;;;;;5095579;28;20464;-56
2022/03/24 01:59:19;;;;;;;23.33;16.60;;;7.90;67.50;;;;;;5095297;28;20477;-56
2022/03/24 02:01:47;;;;;;;21.30;15.37;;;7.90;67.50;;;;;;5095374;28;20444;-57
2022/03/24 02:04:16;;;;;;;20.63;16.27;;;7.90;68.30;;;;;;5095147;28;20452;-56
2022/03/24 02:06:44;;;;;;;17.67;14.50;;;8.00;68.40;;;;;;5095070;28;20451;-56
2022/03/24 02:09:12;;;;;;;23.40;15.70;;;8.00;68.30;;;;;;5095455;28;20514;-57
2022/03/24 02:11:41;;;;;;;21.60;15.93;;;7.90;68.20;;;;;;5095276;28;20455;-56
2022/03/24 02:14:08;;;;;;;20.13;15.23;;;7.70;68.80;;;;;;5095470;28;20473;-57
2022/03/24 02:16:38;;;;;;;24.57;17.23;;;7.70;69.30;;;;;;5095285;28;20452;-56
2022/03/24 02:19:16;;;;;;;21.20;15.97;;;7.70;69.40;;;;;;5095286;28;20440;-56
2022/03/24 02:21:44;;;;;;;27.13;15.33;;;7.70;70.20;;;;;;5095196;28;20434;-56
2022/03/24 02:24:15;;;;;;;20.00;16.33;;;7.80;70.30;;;;;;5095068;28;20455;-57
2022/03/24 02:26:44;;;;;;;18.03;15.10;;;7.80;70.40;;;;;;5095387;28;20443;-56
2022/03/24 02:29:12;;;;;;;20.37;16.33;;;7.80;70.70;;;;;;5095052;28;20510;-56
2022/03/24 02:31:43;;;;;;;23.60;16.80;;;7.80;71.00;;;;;;5094590;28;20444;-56
2022/03/24 02:36:58;;;;;;;17.50;15.60;;;7.60;71.70;;;;;;5094618;28;20855;-56
2022/03/24 02:39:26;;;;;;;19.40;15.90;;;7.50;71.60;;;;;;5094889;28;20446;-57
2022/03/24 02:41:55;;;;;;;19.07;16.30;;;7.50;72.20;;;;;;5093552;28;20964;-56
2022/03/24 02:44:24;;;;;;;22.83;14.93;;;7.50;72.90;;;;;;5094673;28;20968;-56
2022/03/24 02:46:53;;;;;;;23.47;16.27;;;7.60;72.80;;;;;;5094673;28;20467;-56
2022/03/24 02:49:23;;;;;;;29.20;15.23;;;7.50;72.20;;;;;;5094642;28;20479;-56
2022/03/24 02:51:51;;;;;;;21.97;15.43;;;7.60;73.00;;;;;;5094393;28;20835;-56
2022/03/24 02:54:19;;;;;;;22.30;14.80;;;7.40;72.70;;;;;;5094536;28;20500;-56
2022/03/24 02:56:47;;;;;;;19.63;15.30;;;7.40;73.80;;;;;;5094496;28;20444;-56
2022/03/24 02:59:15;;;;;;;26.00;16.00;;;7.40;73.70;;;;;;5094097;28;20846;-56
2022/03/24 03:01:45;;;;;;;19.23;14.63;;;7.40;74.20;;;;;;5094080;28;20455;-56
2022/03/24 03:04:13;;;;;;;23.70;16.77;;;7.40;74.30;;;;;;5094209;28;20912;-56
2022/03/24 03:06:40;;;;;;;18.57;15.70;;;7.50;74.40;;;;;;5094235;28;20550;-56
2022/03/24 03:09:07;;;;;;;24.53;16.10;;;7.30;74.50;;;;;;5093893;28;20475;-57
2022/03/24 03:11:35;;;;;;;20.80;16.13;;;7.20;74.90;;;;;;5093989;28;21005;-57
2022/03/24 03:14:03;;;;;;;24.33;14.80;;;7.20;75.50;;;;;;5094356;28;20500;-56
2022/03/24 03:16:30;;;;;;;25.13;17.00;;;7.10;75.80;;;;;;5093721;28;20451;-57
2022/03/24 03:18:57;;;;;;;26.70;15.90;;;7.10;75.80;;;;;;5094110;28;20459;-56
2022/03/24 03:21:25;;;;;;;19.00;16.27;;;7.10;75.70;;;;;;5093848;28;20501;-56
2022/03/24 03:23:52;;;;;;;23.90;15.70;;;7.00;76.50;;;;;;5094021;28;20479;-56
2022/03/24 03:26:19;;;;;;;22.03;15.97;;;7.10;76.90;;;;;;5094146;28;20469;-56
2022/03/24 03:28:46;;;;;;;27.90;18.20;;;7.10;77.10;;;;;;5093951;28;20483;-56
2022/03/24 03:31:14;;;;;;;22.13;15.17;;;7.20;77.20;;;;;;5093578;28;20432;-56
2022/03/24 03:33:41;;;;;;;21.23;16.37;;;7.20;77.10;;;;;;5093570;28;20508;-56
2022/03/24 03:36:08;;;;;;;25.90;16.10;;;7.20;77.50;;;;;;5093635;28;20804;-56
2022/03/24 03:38:35;;;;;;;25.17;16.80;;;7.30;76.70;;;;;;5093412;28;20965;-56
2022/03/24 03:41:02;;;;;;;21.77;16.40;;;7.20;77.20;;;;;;5093665;28;20443;-56
2022/03/24 03:43:30;;;;;;;23.83;16.73;;;7.10;77.20;;;;;;5093881;28;20459;-56
2022/03/24 03:45:57;;;;;;;18.63;14.87;;;7.10;78.00;;;;;;5093668;28;20477;-56
2022/03/24 03:48:26;;;;;;;24.60;15.97;;;7.10;77.90;;;;;;5093303;28;20463;-56
2022/03/24 03:50:53;;;;;;;19.67;16.17;;;6.90;77.70;;;;;;5093728;28;20537;-56
2022/03/24 03:53:20;;;;;;;22.73;15.83;;;6.90;78.80;;;;;;5092812;28;20483;-56
2022/03/24 03:55:47;;;;;;;21.20;14.67;;;6.90;79.10;;;;;;5093517;28;20470;-56
2022/03/24 03:58:14;;;;;;;20.17;16.53;;;6.90;79.50;;;;;;5093637;28;20471;-56
2022/03/24 04:00:55;;;;;;;22.67;16.33;;;6.90;79.40;;;;;;5093539;28;20464;-56
2022/03/24 04:03:23;;;;;;;20.53;15.73;;;6.90;79.00;;;;;;5093239;28;20439;-56
2022/03/24 04:05:53;;;;;;;20.43;15.17;;;6.70;79.70;;;;;;5093473;28;20447;-56
2022/03/24 04:08:20;;;;;;;20.60;16.37;;;6.60;80.80;;;;;;5093530;28;20464;-56
2022/03/24 04:10:48;;;;;;;20.60;15.83;;;6.70;80.30;;;;;;5093164;28;20487;-56
2022/03/24 04:13:16;;;;;;;23.47;17.47;;;6.70;80.00;;;;;;5093421;28;20459;-56
2022/03/24 04:15:43;;;;;;;24.13;17.30;;;6.70;81.30;;;;;;5093518;28;20462;-56
2022/03/24 04:18:10;;;;;;;24.43;17.07;;;6.80;80.70;;;;;;5093262;28;20490;-56
2022/03/24 04:20:39;;;;;;;21.20;16.43;;;6.70;81.50;;;;;;5093055;28;20929;-56
2022/03/24 04:23:07;;;;;;;20.67;15.90;;;6.80;81.80;;;;;;5093106;28;20796;-56
2022/03/24 04:25:36;;;;;;;20.70;15.57;;;6.80;81.80;;;;;;5093454;28;20918;-56
2022/03/24 04:28:04;;;;;;;23.20;18.07;;;6.80;81.70;;;;;;5092921;28;20482;-56
2022/03/24 04:30:32;;;;;;;24.93;16.03;;;6.70;81.70;;;;;;5093135;28;20658;-56
2022/03/24 04:32:59;;;;;;;21.90;17.47;;;6.60;82.60;;;;;;5093368;28;20444;-56
2022/03/24 04:35:27;;;;;;;22.93;17.20;;;6.50;83.60;;;;;;5093200;28;20477;-56
2022/03/24 04:37:54;;;;;;;24.43;16.47;;;6.50;83.40;;;;;;5092986;28;20513;-56
2022/03/24 04:40:24;;;;;;;22.20;16.60;;;6.50;83.70;;;;;;5093214;28;20466;-56
2022/03/24 04:42:54;;;;;;;22.63;17.53;;;6.60;83.70;;;;;;5093116;28;20456;-56
2022/03/24 04:45:23;;;;;;;21.20;16.97;;;6.40;83.00;;;;;;5092731;28;20451;-56
2022/03/24 04:47:51;;;;;;;21.70;17.17;;;6.40;83.50;;;;;;5092824;28;20467;-56
2022/03/24 04:50:18;;;;;;;26.93;16.97;;;6.40;84.60;;;;;;5092785;28;20482;-56
2022/03/24 04:52:46;;;;;;;23.80;17.33;;;6.50;84.40;;;;;;5092672;28;20483;-56
2022/03/24 04:55:14;;;;;;;25.03;17.87;;;6.50;84.40;;;;;;5092690;28;20812;-56
2022/03/24 04:57:43;;;;;;;20.50;15.20;;;6.40;84.50;;;;;;5092781;28;20996;-56
2022/03/24 05:00:12;;;;;;;24.27;16.60;;;6.30;85.00;;;;;;5092973;28;20443;-56
2022/03/24 05:02:39;;;;;;;21.40;16.20;;;6.30;85.80;;;;;;5092620;28;20925;-56
2022/03/24 05:05:07;;;;;;;21.90;15.90;;;6.40;85.00;;;;;;5093105;28;20799;-56
2022/03/24 05:07:35;;;;;;;22.67;16.53;;;6.40;85.10;;;;;;5096499;28;20464;-56
2022/03/24 05:10:02;;;;;;;22.50;16.33;;;6.40;85.30;;;;;;5096160;28;20478;-56
2022/03/24 05:12:30;;;;;;;22.43;17.07;;;6.40;85.20;;;;;;5096299;28;20483;-56
2022/03/24 05:14:59;;;;;;;22.77;16.70;;;6.50;85.10;;;;;;5096442;28;20454;-56
2022/03/24 05:17:26;;;;;;;27.03;17.73;;;6.40;85.30;;;;;;5095972;28;20467;-56
2022/03/24 05:19:53;;;;;;;18.60;14.80;;;6.40;85.20;;;;;;5096153;28;20479;-56
2022/03/24 05:22:20;;;;;;;24.73;17.20;;;6.40;85.70;;;;;;5096276;28;20447;-56
2022/03/24 05:24:47;;;;;;;23.17;16.50;;;6.30;84.90;;;;;;5096236;28;20451;-56
2022/03/24 05:27:15;;;;;;;28.73;18.07;;;6.40;83.90;;;;;;5096185;28;20474;-56
2022/03/24 05:29:42;;;;;;;27.03;17.47;;;6.50;82.70;;;;;;5095772;28;20448;-56
2022/03/24 05:32:11;;;;;;;25.37;17.90;;;6.40;83.60;;;;;;5095797;28;20432;-57
2022/03/24 05:34:38;;;;;;;22.00;16.73;;;6.40;83.30;;;;;;5096047;28;20526;-56
2022/03/24 05:37:06;;;;;;;22.67;16.67;;;6.40;82.40;;;;;;5095731;28;20977;-57
2022/03/24 05:39:33;;;;;;;27.20;17.93;;;6.50;82.60;;;;;;5095683;28;20451;-56
2022/03/24 05:42:02;;;;;;;29.17;16.60;;;6.50;84.00;;;;;;5095779;28;20538;-57
2022/03/24 05:44:30;;;;;;;22.13;16.97;;;6.40;83.80;;;;;;5095561;28;20945;-58
2022/03/24 05:46:58;;;;;;;20.40;16.90;;;6.40;84.50;;;;;;5095702;28;20463;-57
2022/03/24 05:49:27;;;;;;;20.37;15.50;;;6.40;84.90;;;;;;5095475;28;20459;-58
2022/03/24 05:51:54;;;;;;;26.67;17.33;;;6.30;85.00;;;;;;5095190;28;20571;-58
2022/03/24 05:54:21;;;;;;;22.23;17.57;;;6.20;86.10;;;;;;5095300;28;20924;-58
2022/03/24 05:56:49;;;;;;;25.67;18.70;;;6.10;91.30;;;;;;5095258;28;20469;-58
2022/03/24 05:59:17;;;;;;;25.47;17.57;;;6.10;92.40;;;;;;5095252;28;20444;-57
2022/03/24 06:01:46;;;;;;;22.23;16.60;;;6.40;91.40;;;;;;5095280;28;20517;-57
2022/03/24 06:04:15;;;;;;;28.00;18.07;;;6.40;90.80;;;;;;5095188;28;20443;-57
2022/03/24 06:06:45;;;;;;;23.30;18.37;;;6.50;90.20;;;;;;5095278;28;20447;-57
2022/03/24 06:09:12;;;;;;;19.10;15.23;;;6.40;90.50;;;;;;5095109;28;20937;-57
2022/03/24 06:11:40;;;;;;;22.97;17.33;;;6.50;90.80;;;;;;5095509;28;20562;-58
2022/03/24 06:14:12;;;;;;;21.40;16.50;;;6.60;91.90;;;;;;5095210;28;20490;-57
2022/03/24 06:16:40;;;;;;;23.60;16.70;;;6.60;92.00;;;;;;5094657;28;20921;-57
2022/03/24 06:19:09;;;;;;;20.90;14.73;;;6.60;90.60;;;;;;5094789;28;20930;-56
2022/03/24 06:21:36;;;;;;;24.90;17.83;;;6.70;88.90;;;;;;5094563;28;20483;-57
2022/03/24 06:24:06;;;;;;;23.40;16.33;;;6.60;88.00;;;;;;5094516;28;20577;-58
2022/03/24 06:26:33;;;;;;;26.00;18.07;;;6.60;87.10;;;;;;5095118;28;20588;-56
2022/03/24 06:29:01;;;;;;;25.33;18.43;;;6.60;85.80;;;;;;5094670;28;20952;-56
2022/03/24 06:31:29;;;;;;;29.00;18.30;;;6.60;85.40;;;;;;5094541;28;20487;-56
2022/03/24 06:33:56;;;;;;;23.63;17.30;;;6.70;84.80;;;;;;5094754;28;20535;-56
2022/03/24 06:36:23;;;;;;;27.60;18.00;;;6.70;84.40;;;;;;5094115;28;20454;-56
2022/03/24 06:38:51;;;;;;;28.03;19.57;;;6.80;84.60;;;;;;5094400;28;20468;-56
2022/03/24 06:41:19;;;;;;;32.37;17.70;;;6.90;82.00;;;;;;5093963;28;20447;-56
2022/03/24 06:43:47;;;;;;;30.80;17.23;;;6.90;82.30;;;;;;5094409;28;20487;-57
2022/03/24 06:46:15;;;;;;;22.63;17.87;;;7.00;83.70;;;;;;5094550;28;20534;-56
2022/03/24 06:48:42;;;;;;;25.90;17.90;;;7.10;82.80;;;;;;5094229;28;20525;-57
2022/03/24 06:51:09;;;;;;;28.80;18.33;;;7.20;82.90;;;;;;5093853;28;20479;-57
2022/03/24 06:53:37;;;;;;;31.80;18.00;;;7.30;83.00;;;;;;5093692;28;21040;-57
2022/03/24 06:56:05;;;;;;;25.07;17.70;;;7.40;82.50;;;;;;5094157;28;20444;-56
2022/03/24 06:58:34;;;;;;;25.67;19.43;;;7.40;80.20;;;;;;5094089;28;20550;-57
2022/03/24 07:01:01;;;;;;;24.23;18.10;;;7.50;80.60;;;;;;5093918;28;20439;-56
2022/03/24 07:03:29;;;;;;;34.53;19.60;;;7.60;80.30;;;;;;5094246;28;20455;-56
2022/03/24 07:05:56;;;;;;;26.97;19.17;;;7.70;78.70;;;;;;5093600;28;20538;-56
2022/03/24 07:08:25;;;;;;;27.43;19.07;;;7.60;81.90;;;;;;5093911;28;20495;-56
2022/03/24 07:10:52;;;;;;;26.97;20.60;;;7.60;83.70;;;;;;5093953;28;20567;-56
2022/03/24 07:13:20;;;;;;;25.53;18.10;;;7.80;84.90;;;;;;5093494;28;20450;-56
2022/03/24 07:15:48;;;;;;;23.33;18.50;;;7.80;86.70;;;;;;5093875;28;20463;-56
2022/03/24 07:18:16;;;;;;;29.20;18.10;;;7.80;79.70;;;;;;5093660;28;20474;-56
2022/03/24 07:20:43;;;;;;;26.40;19.10;;;7.90;79.50;;;;;;5093509;28;20448;-56
2022/03/24 07:23:11;;;;;;;25.20;18.50;;;7.90;78.60;;;;;;5093231;28;20530;-57
2022/03/24 07:25:39;;;;;;;24.30;17.73;;;8.00;77.10;;;;;;5093221;28;20956;-57
2022/03/24 07:28:07;;;;;;;28.50;18.47;;;8.10;77.60;;;;;;5093192;28;20537;-57
2022/03/24 07:30:35;;;;;;;30.20;20.47;;;8.30;79.00;;;;;;5093574;28;20479;-57
2022/03/24 07:33:05;;;;;;;26.60;19.90;;;8.40;77.80;;;;;;5093591;28;20523;-57
2022/03/24 07:35:35;;;;;;;28.73;19.33;;;8.40;77.50;;;;;;5093295;28;20448;-59
2022/03/24 07:38:03;;;;;;;25.30;18.67;;;8.60;77.30;;;;;;5092964;28;20554;-57
2022/03/24 07:40:30;;;;;;;28.17;19.27;;;8.70;77.00;;;;;;5093581;28;20776;-56
2022/03/24 07:42:58;;;;;;;27.43;20.17;;;8.70;77.20;;;;;;5092957;28;20459;-56
2022/03/24 07:45:26;;;;;;;30.20;21.03;;;8.80;76.60;;;;;;5093261;28;20447;-57
2022/03/24 07:48:13;;;;;;;32.30;21.20;;;8.80;75.20;;;;;;5093399;28;20493;-57
2022/03/24 07:50:42;;;;;;;26.60;19.60;;;9.00;76.20;;;;;;5093210;28;20540;-58
2022/03/24 07:53:39;;;;;;;24.37;19.40;;;9.10;75.60;;;;;;5092609;28;20471;-58
2022/03/24 07:56:08;;;;;;;25.23;19.87;;;9.20;76.60;;;;;;5080058;28;20516;-58
2022/03/24 07:58:36;;;;;;;25.03;18.93;;;9.30;74.50;;;;;;5092517;28;20470;-57
2022/03/24 08:01:03;;;;;;;26.17;19.43;;;9.40;74.30;;;;;;5093351;28;20448;-57
2022/03/24 08:03:32;;;;;;;28.27;20.10;;;9.50;74.90;;;;;;5092943;28;20447;-57
2022/03/24 08:06:00;;;;;;;29.33;18.77;;;9.60;74.40;;;;;;5092995;28;20847;-57
2022/03/24 08:08:28;;;;;;;32.10;20.07;;;9.60;74.20;;;;;;5092925;28;20468;-57
2022/03/24 08:10:55;;;;;;;26.00;19.93;;;9.60;73.20;;;;;;5092555;28;20479;-57
2022/03/24 08:13:23;;;;;;;32.13;20.47;;;9.80;72.30;;;;;;5092465;28;20455;-56
2022/03/24 08:15:51;;;;;;;27.57;20.23;;;9.90;72.00;;;;;;5092599;28;20878;-56
2022/03/24 08:18:20;;;;;;;37.07;21.00;;;10.00;70.50;;;;;;5092829;28;20543;-55
2022/03/24 08:20:49;;;;;;;31.40;21.40;;;10.20;70.70;;;;;;5092544;28;20443;-56
2022/03/24 08:23:17;;;;;;;23.30;20.30;;;10.20;70.40;;;;;;5092827;28;20784;-56
2022/03/24 08:25:45;;;;;;;26.60;18.10;;;10.30;68.90;;;;;;5092776;28;20469;-56
2022/03/24 08:28:13;;;;;;;31.53;19.50;;;10.50;70.30;;;;;;5092375;28;20529;-56
2022/03/24 08:30:41;;;;;;;26.43;20.00;;;10.50;71.20;;;;;;5092636;28;20447;-56
2022/03/24 08:33:09;;;;;;;32.27;20.37;;;10.60;70.70;;;;;;5092538;28;21139;-56
2022/03/24 08:35:36;;;;;;;29.30;20.27;;;10.80;70.50;;;;;;5092334;28;20439;-56
2022/03/24 08:38:05;;;;;;;28.40;19.83;;;10.90;68.50;;;;;;5092283;28;20531;-56
2022/03/24 08:40:32;;;;;;;25.20;19.40;;;10.90;67.50;;;;;;5093079;28;20651;-57
2022/03/24 08:42:59;;;;;;;32.87;22.10;;;10.90;68.10;;;;;;5096246;28;20553;-57
2022/03/24 08:45:27;;;;;;;26.90;20.90;;;11.10;68.70;;;;;;5096649;28;20443;-57
2022/03/24 08:47:54;;;;;;;30.43;22.27;;;11.20;66.90;;;;;;5096350;28;20467;-57
2022/03/24 08:50:23;;;;;;;24.17;19.63;;;11.30;65.80;;;;;;5096321;28;20507;-57
2022/03/24 08:52:50;;;;;;;29.33;20.90;;;11.40;67.50;;;;;;5095825;28;20989;-57
2022/03/24 08:55:19;;;;;;;28.73;20.23;;;11.40;66.30;;;;;;5096329;28;20476;-57
2022/03/24 08:57:47;;;;;;;32.50;22.13;;;11.60;65.30;;;;;;5096744;28;20459;-57
2022/03/24 09:00:17;;;;;;;31.27;20.57;;;11.70;64.60;;;;;;5096286;28;20466;-57
2022/03/24 09:02:46;;;;;;;29.63;20.77;;;11.70;64.10;;;;;;5096008;28;20999;-56
2022/03/24 09:05:16;;;;;;;35.53;20.97;;;11.80;63.70;;;;;;5096103;28;20447;-57
2022/03/24 09:07:43;;;;;;;29.53;20.57;;;12.00;63.80;;;;;;5095784;28;20499;-57
2022/03/24 09:10:12;;;;;;;29.70;19.43;;;12.20;63.10;;;;;;5096142;28;20443;-57
2022/03/24 09:12:44;;;;;;;26.87;20.40;;;12.30;62.90;;;;;;5096084;28;20479;-56
2022/03/24 09:15:17;;;;;;;33.67;22.37;;;12.50;63.10;;;;;;5096249;28;20431;-56
2022/03/24 09:17:45;;;;;;;36.27;21.50;;;12.50;62.90;;;;;;5095807;28;20506;-56
2022/03/24 09:20:14;;;;;;;31.57;20.70;;;12.50;61.40;;;;;;5096073;28;20504;-56
2022/03/24 09:22:44;;;;;;;29.60;20.50;;;12.70;61.80;;;;;;5095793;28;20538;-57
2022/03/24 09:25:12;;;;;;;28.00;20.70;;;13.20;60.20;;;;;;5095805;28;20444;-57
2022/03/24 09:27:42;;;;;;;34.37;22.30;;;14.90;58.00;;;;;;5095384;28;20475;-57
2022/03/24 09:30:11;;;;;;;39.83;22.20;;;15.30;58.40;;;;;;5095803;28;20443;-57
2022/03/24 09:32:38;;;;;;;26.80;20.20;;;16.40;56.80;;;;;;5095663;28;20521;-57
2022/03/24 09:35:07;;;;;;;25.70;21.67;;;17.30;54.50;;;;;;5095529;28;20450;-57
2022/03/24 09:37:34;;;;;;;28.70;22.90;;;18.00;53.30;;;;;;5095839;28;20564;-57
2022/03/24 09:40:04;;;;;;;25.87;21.30;;;18.50;52.10;;;;;;5095414;28;20479;-57
2022/03/24 09:42:32;;;;;;;28.53;22.53;;;19.40;50.70;;;;;;5095260;28;21008;-57
2022/03/24 09:45:03;;;;;;;30.73;23.13;;;18.60;49.20;;;;;;5095401;28;20524;-57
2022/03/24 09:47:30;;;;;;;25.50;20.57;;;18.70;49.90;;;;;;5095374;28;20463;-58
2022/03/24 09:49:58;;;;;;;30.40;21.67;;;19.20;49.70;;;;;;5095243;28;20447;-58
2022/03/24 09:52:26;;;;;;;28.93;22.90;;;20.10;48.70;;;;;;5093462;28;20514;-58
2022/03/24 09:54:54;;;;;;;26.33;21.53;;;20.80;48.80;;;;;;5095490;28;20447;-58
2022/03/24 09:57:21;;;;;;;26.10;22.90;;;21.20;47.30;;;;;;5095050;28;20473;-58
2022/03/24 09:59:49;;;;;;;33.17;23.23;;;21.20;47.30;;;;;;5095302;28;20439;-58
2022/03/24 10:02:18;;;;;;;31.27;21.47;;;21.50;46.20;;;;;;5095376;28;20450;-58
2022/03/24 10:04:48;;;;;;;27.73;22.93;;;22.10;45.70;;;;;;5095209;28;20539;-58
2022/03/24 10:07:16;;;;;;;26.17;21.70;;;22.10;45.00;;;;;;5095140;28;20525;-58
2022/03/24 10:09:44;;;;;;;33.07;23.37;;;22.30;45.10;;;;;;5095160;28;20454;-58
2022/03/24 10:12:19;;;;;;;29.30;23.20;;;22.20;44.40;;;;;;5094444;28;20483;-59
2022/03/24 10:14:57;;;;;;;28.17;22.50;;;21.90;44.10;;;;;;5094855;28;20532;-58
2022/03/24 10:17:26;;;;;;;28.90;24.37;;;21.80;44.40;;;;;;5094531;28;20965;-58
2022/03/24 10:19:58;;;;;;;31.57;23.40;;;22.20;44.20;;;;;;5094861;28;20997;-59
2022/03/24 10:22:25;;;;;;;32.90;23.37;;;22.30;43.50;;;;;;5094733;28;20450;-57
2022/03/24 10:24:53;;;;;;;29.77;22.37;;;22.70;43.30;;;;;;5095233;28;20447;-57
2022/03/24 10:27:25;;;;;;;26.70;22.20;;;22.40;42.70;;;;;;5094441;28;20486;-58
2022/03/24 10:29:55;;;;;;;29.33;24.40;;;22.70;42.10;;;;;;5094459;28;20534;-59
2022/03/24 10:32:28;;;;;;;26.97;21.23;;;21.60;41.60;;;;;;5094921;28;20490;-58
2022/03/24 10:34:58;;;;;;;27.47;21.27;;;22.00;41.70;;;;;;5094574;28;20432;-58
2022/03/24 10:37:28;;;;;;;32.07;23.97;;;22.50;42.10;;;;;;5094314;28;20588;-57
2022/03/24 10:39:57;;;;;;;29.40;23.43;;;22.70;42.30;;;;;;5094786;28;20463;-58
2022/03/24 10:42:28;;;;;;;25.20;21.60;;;22.90;41.00;;;;;;5094313;28;20948;-58
2022/03/24 10:45:17;;;;;;;24.73;21.97;;;23.20;42.10;;;;;;5094146;28;20503;-58
2022/03/24 10:47:48;;;;;;;27.20;23.40;;;23.00;41.40;;;;;;5094333;28;20470;-58
2022/03/24 10:50:32;;;;;;;32.47;24.17;;;23.00;40.20;;;;;;5094429;28;20432;-58
2022/03/24 10:53:03;;;;;;;29.70;23.37;;;23.50;41.10;;;;;;5093871;28;20509;-58
2022/03/24 10:55:47;;;;;;;30.43;25.07;;;23.60;41.00;;;;;;5093921;28;20426;-57
2022/03/24 10:58:22;;;;;;;30.43;22.03;;;23.40;39.90;;;;;;5093856;28;20471;-58
2022/03/24 11:00:55;;;;;;;30.80;24.50;;;23.80;40.40;;;;;;5094144;28;20423;-58
2022/03/24 11:03:24;;;;;;;25.10;21.30;;;24.40;40.10;;;;;;5092994;28;20448;-58
2022/03/24 11:05:51;;;;;;;27.97;20.97;;;24.40;39.90;;;;;;5093586;28;20457;-58
2022/03/24 11:08:19;;;;;;;31.27;23.97;;;25.10;39.50;;;;;;5093667;28;20585;-58
2022/03/24 11:10:48;;;;;;;27.90;21.23;;;25.10;39.70;;;;;;5093815;28;20443;-58
2022/03/24 11:13:25;;;;;;;33.00;21.57;;;25.10;38.40;;;;;;5093419;28;20537;-58
2022/03/24 11:15:52;;;;;;;26.20;18.33;;;24.60;37.60;;;;;;5093762;28;20427;-58
2022/03/24 11:18:23;;;;;;;26.80;20.47;;;25.00;38.20;;;;;;5093624;28;20536;-58
2022/03/24 11:20:54;;;;;;;23.23;20.83;;;24.30;36.80;;;;;;5093459;28;20837;-58
2022/03/24 11:23:35;;;;;;;19.50;17.50;;;25.10;36.00;;;;;;5093662;28;20424;-58
2022/03/24 11:26:04;;;;;;;18.00;16.20;;;25.50;35.50;;;;;;5093330;28;20817;-59
2022/03/24 11:28:34;;;;;;;18.33;16.43;;;25.10;33.40;;;;;;5093168;28;20847;-58
2022/03/24 11:31:05;;;;;;;17.67;15.90;;;25.30;33.80;;;;;;5093479;28;20440;-57
2022/03/24 11:33:43;;;;;;;18.87;15.10;;;25.30;33.50;;;;;;5093003;28;20503;-57
2022/03/24 11:36:13;;;;;;;19.27;17.23;;;24.90;32.40;;;;;;5093565;28;20898;-57
2022/03/24 11:38:41;;;;;;;18.67;16.57;;;24.90;33.40;;;;;;5093128;28;20467;-58
2022/03/24 11:41:15;;;;;;;18.27;16.37;;;25.10;34.10;;;;;;5093338;28;20485;-58
2022/03/24 11:43:48;;;;;;;18.80;17.00;;;25.20;32.70;;;;;;5093442;28;20538;-58
2022/03/24 11:46:21;;;;;;;18.20;16.30;;;25.10;33.70;;;;;;5093046;28;20477;-58
2022/03/24 11:48:48;;;;;;;22.10;14.90;;;25.20;33.20;;;;;;5093296;28;20556;-58
2022/03/24 11:51:23;;;;;;;15.67;13.73;;;24.10;31.70;;;;;;5093307;28;20538;-58
2022/03/24 11:54:05;;;;;;;17.37;15.67;;;24.10;32.60;;;;;;5092859;28;20487;-58
2022/03/24 11:56:34;;;;;;;19.67;16.63;;;25.40;34.30;;;;;;5092946;28;20435;-59
2022/03/24 11:59:21;;;;;;;18.33;16.37;;;25.30;31.80;;;;;;5092903;28;20456;-58
2022/03/24 12:02:09;;;;;;;19.13;16.20;;;25.50;32.90;;;;;;5093384;28;20423;-58
2022/03/24 12:04:47;;;;;;;18.53;16.73;;;26.00;33.90;;;;;;5092819;28;20439;-58
2022/03/24 12:07:20;;;;;;;18.20;16.27;;;25.20;33.10;;;;;;5092723;28;20850;-59
2022/03/24 12:10:00;;;;;;;18.60;16.80;;;24.80;32.70;;;;;;5093083;28;20757;-59
2022/03/24 12:12:28;;;;;;;20.40;18.40;;;25.00;32.60;;;;;;5092705;28;20491;-58
2022/03/24 12:14:55;;;;;;;17.73;16.03;;;25.10;32.60;;;;;;5094335;28;20507;-58
2022/03/24 12:17:25;;;;;;;17.47;15.67;;;25.20;33.00;;;;;;5096893;28;20797;-58
2022/03/24 12:19:54;;;;;;;18.13;16.23;;;25.20;33.20;;;;;;5096685;28;20783;-58
2022/03/24 12:22:37;;;;;;;20.60;17.60;;;24.70;32.80;;;;;;5096935;28;20443;-58
2022/03/24 12:25:26;;;;;;;20.40;18.20;;;24.90;33.30;;;;;;5097031;28;20428;-58
2022/03/24 12:28:14;;;;;;;19.97;17.87;;;24.70;32.80;;;;;;5096778;28;20467;-59
2022/03/24 12:31:09;;;;;;;20.60;18.50;;;24.20;31.90;;;;;;5096839;28;20549;-58
2022/03/24 12:33:47;;;;;;;19.90;17.20;;;24.20;33.10;;;;;;5096704;28;20460;-58
2022/03/24 12:36:15;;;;;;;19.43;15.40;;;23.80;32.80;;;;;;5096929;28;20519;-58
2022/03/24 12:38:49;;;;;;;18.30;16.40;;;23.60;31.50;;;;;;5096772;28;20467;-58
2022/03/24 12:41:25;;;;;;;19.10;16.53;;;24.00;34.70;;;;;;5096544;28;20910;-58
2022/03/24 12:43:57;;;;;;;23.57;16.03;;;24.30;32.60;;;;;;5096578;28;20451;-58
2022/03/24 12:46:28;;;;;;;20.40;16.13;;;24.00;33.30;;;;;;5096347;28;20424;-59